Hydro, Oklahoma
Current Conditions -  °F | °C
As of 8:35 AM on Friday 28 Nov 2014 (Local Time) from KOJA Reporting Station
Clear Clear  
Wind Chill:   Ceiling: Unl
Heat Index:   Visibility: 10mi
Dew Point:   Wind: 16mph
Humidity: 70%   Direction: 210°SSW
Pressure: 30.04"   Gusts: 22mph
Location:  35.55°N, 98.58°W
Report Text: KOJA 281435Z AUTO 21014G19KT 10SM CLR 05/00 A3004 RMK AO2
Loading
Personal Weather Stations






























Interactive Weather Map New forecast layout! Learn more

10-Day Weather Forecast

Advertisements
Track Severe Weather on mobile